createdAt,value
2023-07-08T00:00:11.497Z,100925.25
2023-07-08T00:00:44.245Z,100925.69
2023-07-08T00:01:18.673Z,100923.78
2023-07-08T00:01:50.670Z,100927.63
2023-07-08T00:02:22.667Z,100925.34
2023-07-08T00:02:54.633Z,100923.94
2023-07-08T00:03:26.575Z,100922.00
2023-07-08T00:03:58.537Z,100921.19
2023-07-08T00:04:30.480Z,100922.25
2023-07-08T00:05:02.425Z,100926.44
2023-07-08T00:05:34.338Z,100916.88
2023-07-08T00:06:06.244Z,100922.34
2023-07-08T00:06:38.343Z,100924.28
2023-07-08T00:07:14.218Z,100918.78
2023-07-08T00:07:46.531Z,100919.63
2023-07-08T00:08:20.514Z,100925.56
2023-07-08T00:08:52.412Z,100921.97
2023-07-08T00:09:24.781Z,100922.22
2023-07-08T00:09:56.749Z,100922.81
2023-07-08T00:10:31.593Z,100927.94
2023-07-08T00:11:10.740Z,100923.66
2023-07-08T00:11:42.647Z,100919.00
2023-07-08T00:12:14.553Z,100924.75
2023-07-08T00:12:49.122Z,100919.25
2023-07-08T00:13:21.101Z,100923.56
2023-07-08T00:13:53.073Z,100922.25
2023-07-08T00:14:25.170Z,100920.91
2023-07-08T00:14:57.068Z,100919.00
2023-07-08T00:15:33.458Z,100922.34
2023-07-08T00:16:05.918Z,100924.03
2023-07-08T00:16:37.851Z,100924.50
2023-07-08T00:17:16.422Z,100925.81
2023-07-08T00:17:48.411Z,100920.81
2023-07-08T00:18:20.334Z,100930.97
2023-07-08T00:18:52.273Z,100928.22
2023-07-08T00:19:25.561Z,100926.53
2023-07-08T00:19:57.511Z,100930.81
2023-07-08T00:20:32.752Z,100924.25
2023-07-08T00:21:09.534Z,100925.91
2023-07-08T00:21:41.418Z,100927.63
2023-07-08T00:22:15.203Z,100931.66
2023-07-08T00:22:53.007Z,100935.72
2023-07-08T00:23:24.904Z,100937.38
2023-07-08T00:23:56.913Z,100928.06
2023-07-08T00:24:28.815Z,100936.78
2023-07-08T00:25:00.705Z,100929.03
2023-07-08T00:25:33.470Z,100931.19
2023-07-08T00:26:16.895Z,100926.53
2023-07-08T00:26:48.862Z,100935.59
2023-07-08T00:27:20.774Z,100932.00
2023-07-08T00:27:52.758Z,100935.00
2023-07-08T00:28:24.653Z,100934.28
2023-07-08T00:28:57.366Z,100932.22
2023-07-08T00:29:29.249Z,100931.97
2023-07-08T00:30:01.596Z,100924.59
2023-07-08T00:30:33.780Z,100920.88
2023-07-08T00:31:10.884Z,100927.69
2023-07-08T00:31:44.191Z,100926.84
2023-07-08T00:32:17.118Z,100927.69
2023-07-08T00:32:49.125Z,100929.38
2023-07-08T00:33:21.107Z,100924.13
2023-07-08T00:33:56.529Z,100920.53
2023-07-08T00:34:29.041Z,100927.69
2023-07-08T00:35:00.932Z,100924.34
2023-07-08T00:35:36.739Z,100926.25
2023-07-08T00:36:18.088Z,100925.19
2023-07-08T00:36:50.074Z,100921.47
2023-07-08T00:37:22.000Z,100923.75
2023-07-08T00:37:54.391Z,100924.59
2023-07-08T00:38:28.381Z,100921.84
2023-07-08T00:39:00.463Z,100919.34
2023-07-08T00:39:33.368Z,100923.16
2023-07-08T00:40:23.673Z,100920.25
2023-07-08T00:40:58.788Z,100917.28
2023-07-08T00:41:39.506Z,100917.06
2023-07-08T00:42:18.894Z,100919.66
2023-07-08T00:42:53.205Z,100919.66
2023-07-08T00:43:39.664Z,100918.00
2023-07-08T00:44:13.142Z,100923.13
2023-07-08T00:44:45.662Z,100924.56
2023-07-08T00:45:37.061Z,100923.97
2023-07-08T00:46:28.291Z,100926.69
2023-07-08T00:47:05.742Z,100929.69
2023-07-08T00:47:38.107Z,100919.53
2023-07-08T00:48:20.106Z,100921.69
2023-07-08T00:48:54.600Z,100920.25
2023-07-08T00:49:31.369Z,100925.75
2023-07-08T00:50:09.239Z,100925.13
2023-07-08T00:50:41.158Z,100917.16
2023-07-08T00:51:13.532Z,100920.09
2023-07-08T00:51:45.437Z,100924.34
2023-07-08T00:52:29.053Z,100924.34
2023-07-08T00:53:26.251Z,100915.75
2023-07-08T00:53:58.158Z,100915.53
2023-07-08T00:54:30.061Z,100921.00
2023-07-08T00:55:07.797Z,100921.84
2023-07-08T00:55:39.792Z,100918.13
2023-07-08T00:56:36.353Z,100917.31
2023-07-08T00:57:08.474Z,100920.28
2023-07-08T00:57:43.800Z,100917.53
2023-07-08T00:58:25.414Z,100917.53
2023-07-08T00:59:03.109Z,100920.28
2023-07-08T01:00:00.513Z,100919.22
2023-07-08T01:00:32.410Z,100921.34
2023-07-08T01:01:06.772Z,100917.78
2023-07-08T01:01:41.942Z,100915.88
2023-07-08T01:02:16.747Z,100918.84
2023-07-08T01:02:53.547Z,100915.28
2023-07-08T01:03:29.077Z,100908.72
2023-07-08T01:04:23.351Z,100912.00
2023-07-08T01:05:18.023Z,100912.00
2023-07-08T01:05:52.137Z,100918.31
2023-07-08T01:06:32.713Z,100915.22
2023-07-08T01:07:05.358Z,100908.28
2023-07-08T01:07:40.107Z,100910.66
2023-07-08T01:08:12.202Z,100909.97
2023-07-08T01:08:44.185Z,100916.28
2023-07-08T01:09:17.235Z,100909.59
2023-07-08T01:09:53.236Z,100911.28
2023-07-08T01:10:32.287Z,100917.00
2023-07-08T01:11:08.569Z,100910.91
2023-07-08T01:11:43.515Z,100910.44
2023-07-08T01:12:23.612Z,100918.06
2023-07-08T01:12:58.801Z,100912.22
2023-07-08T01:13:56.777Z,100911.16
2023-07-08T01:14:32.798Z,100911.75
2023-07-08T01:15:18.872Z,100912.34
2023-07-08T01:15:50.891Z,100913.78
2023-07-08T01:16:26.604Z,100913.41
2023-07-08T01:16:58.985Z,100908.41
2023-07-08T01:17:33.919Z,100908.41
2023-07-08T01:18:05.950Z,100913.47
2023-07-08T01:18:43.865Z,100916.47
2023-07-08T01:19:20.803Z,100912.28
2023-07-08T01:19:54.935Z,100913.94
2023-07-08T01:20:32.271Z,100906.78
2023-07-08T01:21:10.566Z,100915.25
2023-07-08T01:21:57.490Z,100918.84
2023-07-08T01:22:38.362Z,100909.88
2023-07-08T01:23:13.696Z,100913.69
2023-07-08T01:23:45.585Z,100909.63
2023-07-08T01:24:17.499Z,100918.09
2023-07-08T01:24:49.396Z,100916.25
2023-07-08T01:25:22.399Z,100921.59
2023-07-08T01:25:54.316Z,100909.56
2023-07-08T01:26:27.530Z,100909.81
2023-07-08T01:27:01.807Z,100919.22
2023-07-08T01:27:37.253Z,100916.72
2023-07-08T01:28:09.181Z,100911.72
2023-07-08T01:28:41.176Z,100914.22
2023-07-08T01:29:13.933Z,100915.28
2023-07-08T01:29:47.493Z,100913.38
2023-07-08T01:30:19.569Z,100923.13
2023-07-08T01:30:51.614Z,100918.94
2023-07-08T01:31:24.537Z,100915.59
2023-07-08T01:31:57.558Z,100916.22
2023-07-08T01:32:29.674Z,100919.56
2023-07-08T01:33:08.069Z,100921.47
2023-07-08T01:33:40.538Z,100919.78
2023-07-08T01:34:12.614Z,100919.41
2023-07-08T01:35:01.331Z,100927.41
2023-07-08T01:35:33.601Z,100916.28
2023-07-08T01:36:06.245Z,100920.09
2023-07-08T01:36:43.769Z,100919.88
2023-07-08T01:37:15.878Z,100922.81
2023-07-08T01:37:53.344Z,100924.50
2023-07-08T01:38:27.546Z,100917.75
2023-07-08T01:38:59.732Z,100922.81
2023-07-08T01:39:32.820Z,100919.47
2023-07-08T01:40:22.552Z,100919.47
2023-07-08T01:40:57.803Z,100918.88
2023-07-08T01:41:29.911Z,100921.63
2023-07-08T01:42:02.068Z,100916.13
2023-07-08T01:42:34.019Z,100911.13
2023-07-08T01:43:09.603Z,100919.78
2023-07-08T01:43:42.006Z,100917.88
2023-07-08T01:44:34.097Z,100918.13
2023-07-08T01:45:13.644Z,100918.13
2023-07-08T01:45:47.084Z,100914.31
2023-07-08T01:46:23.675Z,100908.84
2023-07-08T01:46:59.431Z,100912.41
2023-07-08T01:47:31.348Z,100917.94
2023-07-08T01:48:08.932Z,100909.50
2023-07-08T01:48:44.710Z,100913.69
2023-07-08T01:49:16.648Z,100912.84
2023-07-08T01:49:50.182Z,100909.28
2023-07-08T01:50:23.317Z,100907.81
2023-07-08T01:51:06.933Z,100915.81
2023-07-08T01:51:38.825Z,100909.97
2023-07-08T01:52:12.987Z,100904.69
2023-07-08T01:52:44.895Z,100913.97
2023-07-08T01:53:20.491Z,100914.66
2023-07-08T01:53:52.533Z,100918.84
2023-07-08T01:54:24.463Z,100916.56
2023-07-08T01:54:56.853Z,100915.34
2023-07-08T01:55:32.834Z,100917.63
2023-07-08T01:56:06.387Z,100919.38
2023-07-08T01:56:38.294Z,100914.97
2023-07-08T01:57:10.190Z,100918.53
2023-07-08T01:57:42.088Z,100914.97
2023-07-08T01:58:14.073Z,100913.91
2023-07-08T01:58:46.145Z,100919.59
2023-07-08T01:59:18.097Z,100910.31
2023-07-08T01:59:50.046Z,100919.59
2023-07-08T02:00:23.411Z,100911.41
2023-07-08T02:00:55.661Z,100911.41
2023-07-08T02:01:27.589Z,100907.81
2023-07-08T02:01:59.516Z,100904.84
2023-07-08T02:02:31.491Z,100915.19
2023-07-08T02:03:03.484Z,100912.28
2023-07-08T02:03:36.024Z,100912.69
2023-07-08T02:04:07.967Z,100906.56
2023-07-08T02:04:39.873Z,100913.53
2023-07-08T02:05:11.946Z,100908.06
2023-07-08T02:05:44.462Z,100912.88
2023-07-08T02:06:16.365Z,100906.38
2023-07-08T02:06:58.787Z,100906.97
2023-07-08T02:07:30.688Z,100905.91
2023-07-08T02:08:02.604Z,100911.03
2023-07-08T02:08:34.514Z,100911.22
2023-07-08T02:09:07.334Z,100910.84
2023-07-08T02:09:39.231Z,100903.47
2023-07-08T02:10:11.626Z,100910.00
2023-07-08T02:10:45.264Z,100908.72
2023-07-08T02:11:17.179Z,100912.50
2023-07-08T02:11:49.085Z,100916.31
2023-07-08T02:12:20.973Z,100915.31
2023-07-08T02:12:52.874Z,100914.94
2023-07-08T02:13:25.523Z,100917.47
2023-07-08T02:13:57.474Z,100909.84
2023-07-08T02:14:29.391Z,100909.84
2023-07-08T02:15:02.410Z,100913.88
2023-07-08T02:15:34.523Z,100913.66
2023-07-08T02:16:08.293Z,100914.50
2023-07-08T02:16:40.270Z,100908.03
2023-07-08T02:17:12.203Z,100909.47
2023-07-08T02:17:44.147Z,100913.03
2023-07-08T02:18:16.129Z,100911.59
2023-07-08T02:18:48.028Z,100916.25
2023-07-08T02:19:20.711Z,100920.03
2023-07-08T02:19:52.633Z,100918.75
2023-07-08T02:20:24.701Z,100917.31
2023-07-08T02:20:56.895Z,100909.94
2023-07-08T02:21:32.139Z,100906.59
2023-07-08T02:22:05.623Z,100919.22
2023-07-08T02:22:37.959Z,100911.19
2023-07-08T02:23:09.873Z,100916.06
2023-07-08T02:23:41.924Z,100905.72
2023-07-08T02:24:13.860Z,100910.34
2023-07-08T02:24:45.741Z,100915.22
2023-07-08T02:25:17.820Z,100908.91
2023-07-08T02:25:54.057Z,100914.00
2023-07-08T02:26:26.310Z,100919.25
2023-07-08T02:26:58.627Z,100915.44
2023-07-08T02:27:30.532Z,100921.75
2023-07-08T02:28:02.435Z,100917.97
2023-07-08T02:28:34.361Z,100915.44
2023-07-08T02:29:06.260Z,100912.09
2023-07-08T02:29:39.325Z,100915.91
2023-07-08T02:30:11.607Z,100918.88
2023-07-08T02:30:43.505Z,100917.56
2023-07-08T02:31:15.434Z,100918.63
2023-07-08T02:31:47.436Z,100921.38
2023-07-08T02:32:19.376Z,100920.75
2023-07-08T02:32:58.086Z,100915.75
2023-07-08T02:33:34.181Z,100918.03
2023-07-08T02:34:06.363Z,100918.03
2023-07-08T02:34:38.502Z,100923.50
2023-07-08T02:35:10.460Z,100916.34
2023-07-08T02:35:42.373Z,100917.41
2023-07-08T02:36:14.271Z,100921.84
2023-07-08T02:36:46.178Z,100919.78
2023-07-08T02:37:18.198Z,100912.63
2023-07-08T02:37:50.097Z,100926.91
2023-07-08T02:38:22.021Z,100923.72
2023-07-08T02:38:53.912Z,100918.03
2023-07-08T02:39:25.827Z,100923.97
2023-07-08T02:39:57.776Z,100920.63
2023-07-08T02:40:29.699Z,100924.88
2023-07-08T02:41:02.013Z,100922.75
2023-07-08T02:41:34.102Z,100928.81
2023-07-08T02:42:06.006Z,100920.22
2023-07-08T02:42:37.918Z,100922.31
2023-07-08T02:43:09.809Z,100918.97
2023-07-08T02:43:41.733Z,100918.97
2023-07-08T02:44:13.656Z,100924.22
2023-07-08T02:44:45.554Z,100922.78
2023-07-08T02:45:18.938Z,100920.50
2023-07-08T02:45:51.941Z,100921.31
2023-07-08T02:46:23.979Z,100921.31
2023-07-08T02:46:55.949Z,100919.66
2023-07-08T02:47:27.862Z,100928.69
2023-07-08T02:47:59.815Z,100927.03
2023-07-08T02:48:31.776Z,100928.94
2023-07-08T02:49:03.747Z,100927.88
2023-07-08T02:49:35.714Z,100927.41
2023-07-08T02:50:09.846Z,100926.34
2023-07-08T02:50:41.839Z,100919.44
2023-07-08T02:51:13.781Z,100922.53
2023-07-08T02:51:45.689Z,100921.50
2023-07-08T02:52:17.572Z,100934.56
2023-07-08T02:52:49.469Z,100923.38
2023-07-08T02:53:21.372Z,100929.53
2023-07-08T02:53:53.275Z,100914.78
2023-07-08T02:54:25.182Z,100934.56
2023-07-08T02:54:57.091Z,100927.03
2023-07-08T02:55:28.982Z,100928.69
2023-07-08T02:56:00.896Z,100928.94
2023-07-08T02:56:32.803Z,100922.63
2023-07-08T02:57:04.915Z,100929.16
2023-07-08T02:57:36.867Z,100931.06
2023-07-08T02:58:08.778Z,100928.94
2023-07-08T02:58:40.698Z,100936.75
2023-07-08T02:59:12.614Z,100931.06
2023-07-08T02:59:47.472Z,100928.31
2023-07-08T03:00:19.429Z,100930.59
2023-07-08T03:00:55.777Z,100929.59
2023-07-08T03:01:28.028Z,100926.63
2023-07-08T03:02:00.032Z,100937.59
2023-07-08T03:02:31.987Z,100933.63
2023-07-08T03:03:04.590Z,100934.84
2023-07-08T03:03:36.588Z,100939.25
2023-07-08T03:04:15.186Z,100941.16
2023-07-08T03:04:47.140Z,100934.84
2023-07-08T03:05:22.150Z,100935.06
2023-07-08T03:06:01.403Z,100939.09
2023-07-08T03:06:34.171Z,100936.38
2023-07-08T03:07:07.103Z,100941.84
2023-07-08T03:07:39.071Z,100932.56
2023-07-08T03:08:10.974Z,100938.03
2023-07-08T03:08:42.877Z,100937.66
2023-07-08T03:09:14.790Z,100941.00
2023-07-08T03:09:46.739Z,100942.28
2023-07-08T03:10:18.649Z,100938.91
2023-07-08T03:10:57.050Z,100936.16
2023-07-08T03:11:29.071Z,100938.06
2023-07-08T03:12:01.890Z,100938.91
2023-07-08T03:12:33.919Z,100940.56
2023-07-08T03:13:05.808Z,100941.22
2023-07-08T03:13:37.768Z,100938.72
2023-07-08T03:14:09.763Z,100943.31
2023-07-08T03:14:41.755Z,100942.53
2023-07-08T03:15:13.873Z,100943.75
2023-07-08T03:15:46.566Z,100935.56
2023-07-08T03:16:18.477Z,100936.63
2023-07-08T03:16:50.413Z,100939.34
2023-07-08T03:17:22.506Z,100941.66
2023-07-08T03:17:58.836Z,100944.22
2023-07-08T03:18:30.962Z,100937.06
2023-07-08T03:19:03.779Z,100943.16
2023-07-08T03:19:36.119Z,100940.41
2023-07-08T03:20:08.634Z,100939.34
2023-07-08T03:20:45.825Z,100943.53
2023-07-08T03:21:19.325Z,100943.53
2023-07-08T03:21:51.227Z,100939.97
2023-07-08T03:22:23.157Z,100944.81
2023-07-08T03:22:55.069Z,100943.16
2023-07-08T03:23:27.298Z,100950.53
2023-07-08T03:23:59.197Z,100943.56
2023-07-08T03:24:31.151Z,100944.22
2023-07-08T03:25:03.427Z,100942.34
2023-07-08T03:25:37.323Z,100947.41
2023-07-08T03:26:15.097Z,100937.31
2023-07-08T03:26:47.657Z,100944.00
2023-07-08T03:27:19.610Z,100944.63
2023-07-08T03:27:51.496Z,100939.81
2023-07-08T03:28:23.383Z,100945.91
2023-07-08T03:28:55.288Z,100939.00
2023-07-08T03:29:27.514Z,100944.00
2023-07-08T03:29:59.455Z,100939.59
2023-07-08T03:30:31.370Z,100947.59
2023-07-08T03:31:03.445Z,100947.81
2023-07-08T03:31:35.507Z,100947.81
2023-07-08T03:32:11.212Z,100943.19
2023-07-08T03:32:43.120Z,100949.47
2023-07-08T03:33:15.070Z,100950.31
2023-07-08T03:33:47.050Z,100945.28
2023-07-08T03:34:19.222Z,100950.16
2023-07-08T03:34:51.158Z,100946.97
2023-07-08T03:35:23.217Z,100946.34
2023-07-08T03:35:56.350Z,100954.78
2023-07-08T03:36:28.328Z,100953.72
2023-07-08T03:37:00.318Z,100953.72
2023-07-08T03:37:32.252Z,100954.13
2023-07-08T03:38:04.286Z,100958.97
2023-07-08T03:38:36.191Z,100950.16
2023-07-08T03:39:08.940Z,100956.72
2023-07-08T03:39:40.864Z,100954.81
2023-07-08T03:40:13.082Z,100957.94
2023-07-08T03:40:45.469Z,100952.47
2023-07-08T03:41:17.424Z,100948.91
2023-07-08T03:41:50.833Z,100959.41
2023-07-08T03:42:22.750Z,100953.34
2023-07-08T03:42:54.659Z,100958.81
2023-07-08T03:43:26.608Z,100956.25
2023-07-08T03:43:58.531Z,100964.06
2023-07-08T03:44:30.490Z,100963.84
2023-07-08T03:45:02.390Z,100957.75
2023-07-08T03:45:34.417Z,100959.66
2023-07-08T03:46:06.328Z,100962.16
2023-07-08T03:46:38.492Z,100957.53
2023-07-08T03:47:10.504Z,100963.41
2023-07-08T03:47:42.447Z,100960.25
2023-07-08T03:48:14.436Z,100959.41
2023-07-08T03:48:47.452Z,100955.84
2023-07-08T03:49:23.330Z,100960.88
2023-07-08T03:49:55.290Z,100961.72
2023-07-08T03:50:28.031Z,100960.88
2023-07-08T03:51:00.341Z,100960.88
2023-07-08T03:51:37.897Z,100969.47
2023-07-08T03:52:17.022Z,100963.38
2023-07-08T03:52:50.472Z,100960.44
2023-07-08T03:53:22.379Z,100964.84
2023-07-08T03:53:54.270Z,100962.94
2023-07-08T03:54:26.655Z,100962.09
2023-07-08T03:54:58.542Z,100966.50
2023-07-08T03:55:30.440Z,100962.94
2023-07-08T03:56:02.344Z,100968.41
2023-07-08T03:56:34.260Z,100964.00
2023-07-08T03:57:06.171Z,100965.06
2023-07-08T03:57:38.088Z,100964.00
2023-07-08T03:58:10.000Z,100960.44
2023-07-08T03:58:42.064Z,100970.31
2023-07-08T03:59:13.962Z,100961.25
2023-07-08T03:59:45.865Z,100965.91
2023-07-08T04:00:17.876Z,100963.16
2023-07-08T04:00:49.782Z,100961.69
2023-07-08T04:01:24.598Z,100970.06
2023-07-08T04:01:56.674Z,100958.28
2023-07-08T04:02:28.590Z,100964.59
2023-07-08T04:03:00.558Z,100963.53
2023-07-08T04:03:32.618Z,100962.28
2023-07-08T04:04:04.650Z,100966.91
2023-07-08T04:04:36.618Z,100966.25
2023-07-08T04:05:15.056Z,100963.34
2023-07-08T04:05:46.958Z,100968.16
2023-07-08T04:06:18.937Z,100960.38
2023-07-08T04:06:51.429Z,100958.88
2023-07-08T04:07:23.342Z,100966.91
2023-07-08T04:07:56.732Z,100965.41
2023-07-08T04:08:28.649Z,100965.41
2023-07-08T04:09:00.546Z,100967.31
2023-07-08T04:09:32.454Z,100970.25
2023-07-08T04:10:04.381Z,100964.56
2023-07-08T04:10:36.284Z,100962.88
2023-07-08T04:11:10.977Z,100966.22
2023-07-08T04:11:43.175Z,100962.66
2023-07-08T04:12:15.313Z,100967.75
2023-07-08T04:12:47.362Z,100962.03
2023-07-08T04:13:19.281Z,100968.13
2023-07-08T04:13:51.880Z,100964.94
2023-07-08T04:14:23.844Z,100963.28
2023-07-08T04:14:55.792Z,100964.94
2023-07-08T04:15:29.669Z,100961.97
2023-07-08T04:16:04.120Z,100967.00
2023-07-08T04:16:47.426Z,100966.56
2023-07-08T04:17:20.386Z,100966.94
2023-07-08T04:17:52.990Z,100974.75
2023-07-08T04:18:24.942Z,100970.72
2023-07-08T04:18:57.277Z,100970.72
2023-07-08T04:19:29.260Z,100970.88
2023-07-08T04:20:07.309Z,100966.00
2023-07-08T04:20:39.224Z,100973.75
2023-07-08T04:21:46.286Z,100971.88
2023-07-08T04:22:18.472Z,100976.50
2023-07-08T04:22:50.396Z,100973.53
2023-07-08T04:23:23.478Z,100973.13
2023-07-08T04:23:55.401Z,100969.09
2023-07-08T04:24:27.298Z,100966.13
2023-07-08T04:24:59.246Z,100965.50
2023-07-08T04:25:31.143Z,100967.19
2023-07-08T04:26:03.236Z,100969.69
2023-07-08T04:26:36.689Z,100976.63
2023-07-08T04:27:15.106Z,100973.88
2023-07-08T04:27:47.082Z,100975.56
2023-07-08T04:28:19.004Z,100968.56
2023-07-08T04:28:51.502Z,100976.56
2023-07-08T04:29:24.411Z,100971.03
2023-07-08T04:29:56.535Z,100979.63
2023-07-08T04:30:28.449Z,100974.38
2023-07-08T04:31:00.856Z,100977.13
2023-07-08T04:31:33.021Z,100974.31
2023-07-08T04:32:05.327Z,100975.38
2023-07-08T04:32:38.865Z,100970.28
2023-07-08T04:33:15.190Z,100977.03
2023-07-08T04:33:47.079Z,100970.50
2023-07-08T04:34:19.001Z,100970.66
2023-07-08T04:34:50.884Z,100968.31
2023-07-08T04:35:22.967Z,100971.66
2023-07-08T04:35:55.487Z,100972.06
2023-07-08T04:36:27.926Z,100969.09
2023-07-08T04:36:59.875Z,100968.41
2023-07-08T04:37:31.791Z,100968.88
2023-07-08T04:38:10.295Z,100970.53
2023-07-08T04:38:43.091Z,100974.13
2023-07-08T04:39:15.366Z,100969.47
2023-07-08T04:39:47.449Z,100974.72
2023-07-08T04:40:21.350Z,100974.72
2023-07-08T04:40:54.740Z,100972.38
2023-07-08T04:41:27.018Z,100972.38
2023-07-08T04:41:58.934Z,100967.50
2023-07-08T04:42:30.834Z,100971.31
2023-07-08T04:43:03.286Z,100971.72
2023-07-08T04:43:35.204Z,100975.06
2023-07-08T04:44:09.837Z,100971.25
2023-07-08T04:44:42.459Z,100976.97
2023-07-08T04:45:18.512Z,100972.69
2023-07-08T04:45:52.872Z,100975.19
2023-07-08T04:46:34.264Z,100975.19
2023-07-08T04:47:06.183Z,100972.47
2023-07-08T04:47:38.078Z,100976.28
2023-07-08T04:48:14.698Z,100979.25
2023-07-08T04:48:47.029Z,100971.72
2023-07-08T04:49:18.938Z,100971.00
2023-07-08T04:49:50.847Z,100966.97
2023-07-08T04:50:22.920Z,100965.91
2023-07-08T04:50:54.914Z,100976.41
2023-07-08T04:51:26.838Z,100971.53
2023-07-08T04:52:02.964Z,100976.41
2023-07-08T04:52:34.901Z,100978.09
2023-07-08T04:53:06.808Z,100975.34
2023-07-08T04:53:38.710Z,100976.19
2023-07-08T04:54:11.681Z,100987.50
2023-07-08T04:54:43.603Z,100979.53
2023-07-08T04:55:15.559Z,100984.34
2023-07-08T04:55:53.735Z,100975.66
2023-07-08T04:56:40.914Z,100985.09
2023-07-08T04:57:13.003Z,100981.50
2023-07-08T04:57:44.927Z,100985.22
2023-07-08T04:58:16.837Z,100986.91
2023-07-08T04:58:48.752Z,100980.13
2023-07-08T04:59:23.428Z,100974.63
2023-07-08T04:59:55.327Z,100977.16
2023-07-08T05:00:27.264Z,100976.53
2023-07-08T05:00:59.335Z,100978.22
2023-07-08T05:01:31.827Z,100988.09
2023-07-08T05:02:03.811Z,100979.03
2023-07-08T05:02:36.099Z,100978.69
2023-07-08T05:03:08.041Z,100979.75
2023-07-08T05:03:40.020Z,100978.69
2023-07-08T05:04:17.601Z,100988.09
2023-07-08T05:04:49.528Z,100980.53
2023-07-08T05:05:21.770Z,100983.03
2023-07-08T05:05:53.688Z,100985.06
2023-07-08T05:06:25.592Z,100979.59
2023-07-08T05:06:57.515Z,100988.19
2023-07-08T05:07:29.407Z,100984.59
2023-07-08T05:08:01.799Z,100988.56
2023-07-08T05:08:33.708Z,100985.44
2023-07-08T05:09:06.331Z,100985.44
2023-07-08T05:09:38.294Z,100990.09
2023-07-08T05:10:10.408Z,100983.91
2023-07-08T05:10:42.320Z,100992.97
2023-07-08T05:11:14.243Z,100989.75
2023-07-08T05:11:46.293Z,100996.72
2023-07-08T05:12:18.233Z,100996.09
2023-07-08T05:12:50.299Z,100988.09
2023-07-08T05:13:23.267Z,100991.22
2023-07-08T05:13:55.325Z,100988.25
2023-07-08T05:14:27.315Z,100991.59
2023-07-08T05:14:59.239Z,100991.97
2023-07-08T05:15:31.145Z,100991.72
2023-07-08T05:16:03.089Z,100993.41
2023-07-08T05:16:38.927Z,100991.50
2023-07-08T05:17:11.816Z,100994.63
2023-07-08T05:17:44.254Z,100987.44
2023-07-08T05:18:16.201Z,100993.75
2023-07-08T05:18:48.415Z,100987.84
2023-07-08T05:19:23.183Z,100989.06
2023-07-08T05:19:55.473Z,100990.50
2023-07-08T05:20:27.401Z,100991.72
2023-07-08T05:20:59.555Z,101000.31
2023-07-08T05:21:34.765Z,101001.50
2023-07-08T05:22:06.690Z,101001.06
2023-07-08T05:22:38.579Z,100995.94
2023-07-08T05:23:10.475Z,100996.31
2023-07-08T05:23:42.426Z,100988.66
2023-07-08T05:24:14.324Z,100996.44
2023-07-08T05:24:48.065Z,100996.78
2023-07-08T05:25:22.082Z,100994.69
2023-07-08T05:25:55.353Z,100999.22
2023-07-08T05:26:27.348Z,100991.56
2023-07-08T05:27:00.626Z,100997.66
2023-07-08T05:27:35.204Z,100994.91
2023-07-08T05:28:07.120Z,100999.94
2023-07-08T05:28:39.173Z,100995.50
2023-07-08T05:29:11.071Z,101000.53
2023-07-08T05:29:44.407Z,100996.47
2023-07-08T05:30:18.589Z,101001.28
2023-07-08T05:30:54.871Z,101003.31
2023-07-08T05:31:37.882Z,101000.69
2023-07-08T05:32:14.041Z,101002.09
2023-07-08T05:32:46.476Z,101007.50
2023-07-08T05:33:18.410Z,101005.16
2023-07-08T05:33:50.304Z,101006.59
2023-07-08T05:34:22.204Z,101008.84
2023-07-08T05:34:54.328Z,101015.78
2023-07-08T05:35:26.238Z,101008.13
2023-07-08T05:35:58.266Z,101005.38
2023-07-08T05:36:30.163Z,101008.38
2023-07-08T05:37:02.242Z,101008.13
2023-07-08T05:37:34.142Z,101011.47
2023-07-08T05:38:06.054Z,101011.84
2023-07-08T05:38:37.994Z,101011.63
2023-07-08T05:39:09.905Z,101006.72
2023-07-08T05:39:41.930Z,101015.53
2023-07-08T05:40:14.094Z,101007.91
2023-07-08T05:40:56.919Z,101007.75
2023-07-08T05:41:28.893Z,101010.28
2023-07-08T05:42:00.799Z,101006.22
2023-07-08T05:42:33.001Z,101006.34
2023-07-08T05:43:04.898Z,101005.84
2023-07-08T05:43:36.816Z,101002.38
2023-07-08T05:44:08.731Z,101005.25
2023-07-08T05:44:40.816Z,101004.78
2023-07-08T05:45:12.739Z,101010.13
2023-07-08T05:45:49.800Z,101009.97
2023-07-08T05:46:29.878Z,101012.63
2023-07-08T05:47:01.975Z,101016.59
2023-07-08T05:47:34.097Z,101021.59
2023-07-08T05:48:06.461Z,101014.66
2023-07-08T05:48:38.382Z,101007.81
2023-07-08T05:49:10.379Z,101014.50
2023-07-08T05:49:43.332Z,101012.34
2023-07-08T05:50:15.269Z,101015.09
2023-07-08T05:50:48.653Z,101021.75
2023-07-08T05:51:20.565Z,101015.66
2023-07-08T05:51:52.671Z,101019.00
2023-07-08T05:52:24.629Z,101022.69
2023-07-08T05:52:56.592Z,101023.06
2023-07-08T05:53:28.519Z,101021.47
2023-07-08T05:54:00.429Z,101020.75
2023-07-08T05:54:32.358Z,101024.00
2023-07-08T05:55:04.351Z,101028.25
2023-07-08T05:55:36.276Z,101026.09
2023-07-08T05:56:08.272Z,101015.06
2023-07-08T05:56:40.216Z,101024.28
2023-07-08T05:57:12.909Z,101020.19
2023-07-08T05:57:47.717Z,101025.22
2023-07-08T05:58:25.870Z,101023.13
2023-07-08T05:58:58.582Z,101021.69
2023-07-08T05:59:30.477Z,101030.53
2023-07-08T06:00:02.412Z,101027.28
2023-07-08T06:00:38.995Z,101019.84
2023-07-08T06:01:11.300Z,101025.69
2023-07-08T06:01:43.276Z,101022.09
2023-07-08T06:02:15.196Z,101022.09
2023-07-08T06:02:47.175Z,101020.19
2023-07-08T06:03:19.129Z,101024.53
2023-07-08T06:03:51.257Z,101019.16
2023-07-08T06:04:23.276Z,101023.34
2023-07-08T06:04:55.214Z,101018.44
2023-07-08T06:05:27.121Z,101021.19
2023-07-08T06:05:59.063Z,101019.59
2023-07-08T06:06:31.301Z,101023.69
2023-07-08T06:07:03.289Z,101021.84
2023-07-08T06:07:35.672Z,101018.84
2023-07-08T06:08:08.818Z,101017.19
2023-07-08T06:08:40.813Z,101017.19
2023-07-08T06:09:12.722Z,101019.94
2023-07-08T06:09:44.999Z,101019.72
2023-07-08T06:10:16.995Z,101016.72
2023-07-08T06:10:48.951Z,101021.59
2023-07-08T06:11:21.191Z,101019.22
2023-07-08T06:11:53.111Z,101025.88
2023-07-08T06:12:25.270Z,101029.56
2023-07-08T06:12:57.214Z,101016.63
2023-07-08T06:13:29.169Z,101021.38
2023-07-08T06:14:01.313Z,101024.97
2023-07-08T06:14:33.415Z,101016.53
2023-07-08T06:15:05.741Z,101024.06
2023-07-08T06:15:37.650Z,101024.38
2023-07-08T06:16:09.636Z,101018.88
2023-07-08T06:16:42.440Z,101018.63
2023-07-08T06:17:15.189Z,101017.88
2023-07-08T06:17:47.206Z,101018.94
2023-07-08T06:18:19.242Z,101020.28
2023-07-08T06:18:51.412Z,101018.94
2023-07-08T06:19:23.331Z,101023.56
2023-07-08T06:19:55.270Z,101024.38
2023-07-08T06:20:27.174Z,101019.19
2023-07-08T06:20:59.911Z,101017.88
2023-07-08T06:21:32.058Z,101024.56
2023-07-08T06:22:29.360Z,101018.22
2023-07-08T06:22:56.802Z,101020.47